createdAt,value
2022-10-10T00:03:28.279Z,22.60
2022-10-10T00:08:36.142Z,20.70
2022-10-10T00:13:44.169Z,19.80
2022-10-10T00:18:52.359Z,25.20
2022-10-10T00:24:00.995Z,20.20
2022-10-10T00:29:08.347Z,19.00
2022-10-10T00:39:21.427Z,19.80
2022-10-10T00:44:30.120Z,19.20
2022-10-10T00:49:40.962Z,17.60
2022-10-10T00:54:47.860Z,19.60
2022-10-10T00:59:54.951Z,22.30
2022-10-10T01:05:01.785Z,18.90
2022-10-10T01:10:14.232Z,18.40
2022-10-10T01:15:30.148Z,21.00
2022-10-10T01:21:00.895Z,22.50
2022-10-10T01:26:23.288Z,16.80
2022-10-10T01:31:35.994Z,22.40
2022-10-10T01:36:51.679Z,21.20
2022-10-10T01:42:04.956Z,19.00
2022-10-10T01:47:13.881Z,23.70
2022-10-10T01:52:31.699Z,19.10
2022-10-10T01:57:50.117Z,21.40
2022-10-10T02:03:04.506Z,22.20
2022-10-10T02:08:15.955Z,24.10
2022-10-10T02:13:28.496Z,22.30
2022-10-10T02:18:37.875Z,22.80
2022-10-10T02:23:48.607Z,22.00
2022-10-10T02:28:59.627Z,21.00
2022-10-10T02:34:12.117Z,21.20
2022-10-10T02:39:22.841Z,19.60
2022-10-10T02:44:30.941Z,23.50
2022-10-10T02:49:38.881Z,24.50
2022-10-10T02:54:45.997Z,25.20
2022-10-10T02:59:52.933Z,25.10
2022-10-10T03:05:00.209Z,24.30
2022-10-10T03:10:09.175Z,23.20
2022-10-10T03:15:16.401Z,26.60
2022-10-10T03:20:23.673Z,25.20
2022-10-10T03:25:31.043Z,27.30
2022-10-10T03:30:38.826Z,25.80
2022-10-10T03:35:46.609Z,26.00
2022-10-10T03:40:53.627Z,23.30
2022-10-10T03:46:01.055Z,23.60
2022-10-10T03:51:08.940Z,20.60
2022-10-10T03:56:16.859Z,21.70
2022-10-10T04:01:24.093Z,21.10
2022-10-10T04:06:31.210Z,19.00
2022-10-10T04:16:45.886Z,20.10
2022-10-10T04:21:52.900Z,18.90
2022-10-10T04:32:05.636Z,23.10
2022-10-10T04:37:13.266Z,16.90
2022-10-10T04:42:20.462Z,19.80
2022-10-10T04:47:27.767Z,20.20
2022-10-10T04:52:34.879Z,18.10
2022-10-10T04:57:41.980Z,26.30
2022-10-10T05:07:55.738Z,22.00
2022-10-10T05:13:03.351Z,22.10
2022-10-10T05:18:11.013Z,25.80
2022-10-10T05:23:18.460Z,21.40
2022-10-10T05:28:25.704Z,22.10
2022-10-10T05:33:33.556Z,27.70
2022-10-10T05:38:41.653Z,19.10
2022-10-10T05:43:48.812Z,23.60
2022-10-10T05:48:56.173Z,22.00
2022-10-10T05:54:03.971Z,16.20
2022-10-10T05:59:11.107Z,21.30
2022-10-10T06:09:24.212Z,23.60
2022-10-10T06:19:36.796Z,22.50
2022-10-10T06:29:49.252Z,18.90
2022-10-10T06:34:56.585Z,27.90
2022-10-10T06:40:04.256Z,25.90
2022-10-10T06:45:13.034Z,21.40
2022-10-10T06:50:20.913Z,15.80
2022-10-10T06:55:28.171Z,15.60
2022-10-10T07:00:35.654Z,13.90
2022-10-10T07:05:42.805Z,15.10
2022-10-10T07:15:55.692Z,13.60
2022-10-10T07:21:04.373Z,17.90
2022-10-10T07:26:21.248Z,21.60
2022-10-10T07:31:28.280Z,19.90
2022-10-10T07:36:35.913Z,17.70
2022-10-10T07:41:42.788Z,23.00
2022-10-10T07:46:50.299Z,23.70
2022-10-10T07:52:00.417Z,21.20
2022-10-10T07:57:09.060Z,13.70
2022-10-10T08:02:16.363Z,19.70
2022-10-10T08:07:23.670Z,19.60
2022-10-10T08:17:36.695Z,15.30
2022-10-10T08:22:44.024Z,12.00
2022-10-10T08:27:50.895Z,15.80
2022-10-10T08:32:58.303Z,11.50
2022-10-10T08:38:06.017Z,7.40
2022-10-10T08:43:22.297Z,7.20
2022-10-10T08:48:32.599Z,6.90
2022-10-10T08:53:46.425Z,7.50
2022-10-10T08:58:59.118Z,7.40
2022-10-10T09:04:09.418Z,21.10
2022-10-10T09:09:26.713Z,7.60
2022-10-10T09:14:41.950Z,7.50
2022-10-10T09:20:00.101Z,8.90
2022-10-10T09:25:17.194Z,6.90
2022-10-10T09:30:25.544Z,7.10
2022-10-10T09:35:38.653Z,8.00
2022-10-10T09:40:50.771Z,6.90
2022-10-10T09:45:58.653Z,13.70
2022-10-10T09:51:09.113Z,8.30
2022-10-10T09:56:19.833Z,8.90
2022-10-10T10:01:29.229Z,6.70
2022-10-10T10:06:36.777Z,6.10
2022-10-10T10:11:44.243Z,7.10
2022-10-10T10:16:51.535Z,8.00
2022-10-10T10:21:58.430Z,6.50
2022-10-10T10:27:18.537Z,8.50
2022-10-10T10:32:43.647Z,5.10
2022-10-10T10:38:08.667Z,8.80
2022-10-10T10:43:31.037Z,4.50
2022-10-10T10:48:45.383Z,6.00
2022-10-10T10:54:00.207Z,5.00
2022-10-10T10:59:41.680Z,4.60
2022-10-10T11:05:24.332Z,4.20
2022-10-10T11:10:46.237Z,5.30
2022-10-10T11:16:06.405Z,5.40
2022-10-10T11:21:20.799Z,4.80
2022-10-10T11:26:32.019Z,6.10
2022-10-10T11:31:44.885Z,5.50
2022-10-10T11:36:53.741Z,4.20
2022-10-10T11:42:04.795Z,5.00
2022-10-10T11:47:23.052Z,4.10
2022-10-10T11:52:35.752Z,4.90
2022-10-10T11:57:47.946Z,5.70
2022-10-10T12:02:56.382Z,6.40
2022-10-10T12:08:13.234Z,6.20
2022-10-10T12:13:29.972Z,5.20
2022-10-10T12:18:45.969Z,5.80
2022-10-10T12:24:05.868Z,5.00
2022-10-10T12:29:14.061Z,4.60
2022-10-10T12:34:45.064Z,5.20
2022-10-10T12:40:24.007Z,6.10
2022-10-10T12:46:05.594Z,6.80
2022-10-10T12:51:22.559Z,7.70
2022-10-10T13:02:03.574Z,6.00
2022-10-10T13:07:15.472Z,5.90
2022-10-10T13:12:28.733Z,5.50
2022-10-10T13:17:42.707Z,5.00
2022-10-10T13:22:49.948Z,4.70
2022-10-10T13:27:57.190Z,5.20
2022-10-10T13:33:04.561Z,5.40
2022-10-10T13:38:13.333Z,3.90
2022-10-10T13:43:21.562Z,5.50
2022-10-10T13:48:41.165Z,4.30
2022-10-10T13:53:51.112Z,5.10
2022-10-10T13:59:06.676Z,6.50
2022-10-10T14:04:26.651Z,5.50
2022-10-10T14:09:38.448Z,5.50
2022-10-10T14:14:48.042Z,4.80
2022-10-10T14:19:56.547Z,5.10
2022-10-10T14:25:04.077Z,6.40
2022-10-10T14:30:17.140Z,5.10
2022-10-10T14:35:24.262Z,4.70
2022-10-10T14:40:34.566Z,5.20
2022-10-10T14:45:42.412Z,5.40
2022-10-10T14:50:52.052Z,6.70
2022-10-10T14:55:59.653Z,5.30
2022-10-10T15:01:07.517Z,7.60
2022-10-10T15:06:15.079Z,5.40
2022-10-10T15:11:22.389Z,7.30
2022-10-10T15:16:30.213Z,6.80
2022-10-10T15:21:37.397Z,6.40
2022-10-10T15:26:44.396Z,6.90
2022-10-10T15:31:51.447Z,9.50
2022-10-10T15:37:01.091Z,6.20
2022-10-10T15:42:15.019Z,10.50
2022-10-10T15:47:24.724Z,7.40
2022-10-10T15:52:32.234Z,7.70
2022-10-10T15:57:40.122Z,5.30
2022-10-10T16:02:47.032Z,7.90
2022-10-10T16:07:55.777Z,12.40
2022-10-10T16:13:03.180Z,8.10
2022-10-10T16:18:10.267Z,9.60
2022-10-10T16:23:17.264Z,10.30
2022-10-10T16:28:27.586Z,7.80
2022-10-10T16:33:36.242Z,8.40
2022-10-10T16:38:43.800Z,9.50
2022-10-10T16:43:51.105Z,8.10
2022-10-10T16:49:00.817Z,7.40
2022-10-10T16:54:08.925Z,8.80
2022-10-10T16:59:15.994Z,9.00
2022-10-10T17:04:22.905Z,10.60
2022-10-10T17:09:30.296Z,11.60
2022-10-10T17:14:37.300Z,11.20
2022-10-10T17:19:44.305Z,11.80
2022-10-10T17:24:51.657Z,12.60
2022-10-10T17:29:59.734Z,13.60
2022-10-10T17:35:08.185Z,9.70
2022-10-10T17:40:15.771Z,12.60
2022-10-10T17:45:22.678Z,11.30
2022-10-10T17:55:36.669Z,15.90
2022-10-10T18:00:44.752Z,17.00
2022-10-10T18:05:51.796Z,15.50
2022-10-10T18:10:59.514Z,15.10
2022-10-10T18:16:13.018Z,18.50
2022-10-10T18:21:22.352Z,13.90
2022-10-10T18:26:32.774Z,15.60
2022-10-10T18:31:40.489Z,15.00
2022-10-10T18:36:47.406Z,14.50
2022-10-10T18:46:59.748Z,16.90
2022-10-10T18:52:08.361Z,14.80
2022-10-10T18:57:15.669Z,17.80
2022-10-10T19:02:22.575Z,12.90
2022-10-10T19:12:35.227Z,18.20
2022-10-10T19:17:42.295Z,20.20
2022-10-10T19:22:49.396Z,18.50
2022-10-10T19:33:02.577Z,18.50
2022-10-10T19:38:11.299Z,18.10
2022-10-10T19:43:18.849Z,19.40
2022-10-10T19:48:26.139Z,27.30
2022-10-10T19:53:34.158Z,29.30
2022-10-10T19:58:42.087Z,27.40
2022-10-10T20:03:49.803Z,28.60
2022-10-10T20:08:57.081Z,26.70
2022-10-10T20:14:04.309Z,31.00
2022-10-10T20:19:11.235Z,35.60
2022-10-10T20:24:18.518Z,40.60
2022-10-10T20:29:25.527Z,31.20
2022-10-10T20:34:32.598Z,35.80
2022-10-10T20:39:39.762Z,41.40
2022-10-10T20:44:46.768Z,32.70
2022-10-10T20:49:54.038Z,35.90
2022-10-10T20:55:01.237Z,34.70
2022-10-10T21:00:11.512Z,31.60
2022-10-10T21:05:18.864Z,34.70
2022-10-10T21:10:26.134Z,39.50
2022-10-10T21:15:34.232Z,36.50
2022-10-10T21:20:41.476Z,31.70
2022-10-10T21:25:48.866Z,32.00
2022-10-10T21:30:56.252Z,36.30
2022-10-10T21:36:03.601Z,35.40
2022-10-10T21:41:13.905Z,31.40
2022-10-10T21:46:23.539Z,37.00
2022-10-10T21:51:31.210Z,34.00
2022-10-10T21:56:38.857Z,28.80
2022-10-10T22:01:45.804Z,26.70
2022-10-10T22:06:52.834Z,30.00
2022-10-10T22:17:05.755Z,26.80
2022-10-10T22:22:12.979Z,28.90
2022-10-10T22:32:25.608Z,31.50
2022-10-10T22:37:33.423Z,25.50
2022-10-10T22:42:40.756Z,29.80
2022-10-10T22:47:47.931Z,26.20
2022-10-10T22:58:00.823Z,27.70
2022-10-10T23:03:08.294Z,33.00
2022-10-10T23:08:15.620Z,28.50
2022-10-10T23:13:22.932Z,27.10
2022-10-10T23:18:30.750Z,28.20
2022-10-10T23:23:38.139Z,34.80
2022-10-10T23:28:46.022Z,27.80
2022-10-10T23:33:53.490Z,29.40
2022-10-10T23:39:01.145Z,32.30
2022-10-10T23:44:08.813Z,24.20
2022-10-10T23:49:15.781Z,30.50
2022-10-10T23:54:22.831Z,31.80
